TimeHST,TemperatureF,Dew PointF,Humidity,Sea Level PressureIn,VisibilityMPH,Wind Direction,Wind SpeedMPH,Gust SpeedMPH,PrecipitationIn,Events,Conditions,WindDirDegrees,DateUTC
12:54 AM,73.9,69.1,85,30.10,10.0,NE,8.1,-,N/A,,Mostly Cloudy,40,2013-10-31 10:54:00
1:54 AM,72.0,68.0,87,30.08,10.0,North,3.5,-,N/A,,Clear,10,2013-10-31 11:54:00
2:54 AM,73.0,69.1,87,30.06,10.0,NNE,6.9,-,N/A,,Clear,20,2013-10-31 12:54:00
3:54 AM,73.0,68.0,84,30.05,10.0,North,4.6,-,N/A,,Clear,360,2013-10-31 13:54:00
4:54 AM,68.0,66.0,93,30.05,10.0,ENE,5.8,-,N/A,,Clear,70,2013-10-31 14:54:00
5:54 AM,66.0,64.9,96,30.06,10.0,WNW,3.5,-,N/A,,Clear,300,2013-10-31 15:54:00
6:54 AM,69.1,64.9,87,30.07,10.0,NE,6.9,-,N/A,,Clear,50,2013-10-31 16:54:00
7:54 AM,77.0,66.9,71,30.09,10.0,Calm,Calm,-,N/A,,Clear,0,2013-10-31 17:54:00
8:54 AM,81.0,68.0,65,30.10,10.0,NNE,10.4,17.3,N/A,,Clear,30,2013-10-31 18:54:00
9:54 AM,82.0,66.9,60,30.12,10.0,Calm,Calm,-,N/A,,Partly Cloudy,0,2013-10-31 19:54:00
10:54 AM,81.0,69.1,67,30.10,10.0,Variable,6.9,-,N/A,,Partly Cloudy,0,2013-10-31 20:54:00
11:54 AM,81.0,70.0,69,30.08,10.0,NE,10.4,-,N/A,,Mostly Cloudy,40,2013-10-31 21:54:00
12:54 PM,82.9,70.0,65,30.05,10.0,NE,13.8,23.0,N/A,,Partly Cloudy,40,2013-10-31 22:54:00
1:54 PM,82.9,71.1,67,30.04,10.0,NE,16.1,26.5,N/A,,Clear,50,2013-10-31 23:54:00
2:54 PM,82.0,71.1,69,30.04,10.0,NE,15.0,26.5,N/A,,Clear,50,2013-11-01 00:54:00
3:54 PM,80.1,70.0,71,30.04,10.0,NNE,18.4,25.3,N/A,,Clear,30,2013-11-01 01:54:00
4:54 PM,79.0,70.0,74,30.05,10.0,NE,12.7,23.0,N/A,,Partly Cloudy,40,2013-11-01 02:54:00
5:54 PM,75.9,70.0,82,30.06,10.0,NE,12.7,21.9,N/A,,Clear,40,2013-11-01 03:54:00
6:54 PM,75.0,70.0,84,30.08,10.0,NE,10.4,-,N/A,,Clear,40,2013-11-01 04:54:00
7:54 PM,75.0,70.0,84,30.11,10.0,NE,8.1,-,N/A,,Clear,40,2013-11-01 05:54:00
8:28 PM,75.2,69.8,83,30.11,10.0,NE,8.1,-,N/A,,Mostly Cloudy,40,2013-11-01 06:28:00
8:54 PM,75.0,70.0,84,30.12,10.0,Variable,3.5,-,N/A,,Mostly Cloudy,0,2013-11-01 06:54:00
9:16 PM,75.2,69.8,83,30.12,10.0,NE,8.1,19.6,N/A,,Mostly Cloudy,50,2013-11-01 07:16:00
9:54 PM,75.0,70.0,84,30.12,10.0,Variable,6.9,-,N/A,,Mostly Cloudy,0,2013-11-01 07:54:00
10:45 PM,75.2,71.6,89,30.11,10.0,NNE,8.1,-,N/A,,Mostly Cloudy,30,2013-11-01 08:45:00
10:54 PM,75.0,71.1,87,30.12,10.0,Variable,5.8,-,N/A,,Mostly Cloudy,0,2013-11-01 08:54:00
11:54 PM,75.0,71.1,87,30.10,10.0,Calm,Calm,-,N/A,,Mostly Cloudy,0,2013-11-01 09:54:00